sensor_id;sensor_type;location;lat;lon;timestamp;temperature;humidity
38008;DHT22;75335;50.812;12.376;2024-03-29T00:00:09;8.40;80.90
38008;DHT22;75335;50.812;12.376;2024-03-29T00:02:37;8.40;81.20
38008;DHT22;75335;50.812;12.376;2024-03-29T00:05:04;8.40;81.10
38008;DHT22;75335;50.812;12.376;2024-03-29T00:07:31;8.40;80.90
38008;DHT22;75335;50.812;12.376;2024-03-29T00:09:58;8.50;81.10
38008;DHT22;75335;50.812;12.376;2024-03-29T00:12:24;8.50;81.00
38008;DHT22;75335;50.812;12.376;2024-03-29T00:14:51;8.60;80.90
38008;DHT22;75335;50.812;12.376;2024-03-29T00:17:20;8.60;80.60
38008;DHT22;75335;50.812;12.376;2024-03-29T00:19:47;8.60;80.70
38008;DHT22;75335;50.812;12.376;2024-03-29T00:22:14;8.50;81.00
38008;DHT22;75335;50.812;12.376;2024-03-29T00:24:40;8.50;81.10
38008;DHT22;75335;50.812;12.376;2024-03-29T00:27:07;8.40;81.10
38008;DHT22;75335;50.812;12.376;2024-03-29T00:29:34;8.40;81.30
38008;DHT22;75335;50.812;12.376;2024-03-29T00:32:01;8.40;81.40
38008;DHT22;75335;50.812;12.376;2024-03-29T00:34:29;8.30;81.80
38008;DHT22;75335;50.812;12.376;2024-03-29T00:36:56;8.30;81.80
38008;DHT22;75335;50.812;12.376;2024-03-29T00:39:23;8.30;81.80
38008;DHT22;75335;50.812;12.376;2024-03-29T00:41:50;8.30;82.00
38008;DHT22;75335;50.812;12.376;2024-03-29T00:44:18;8.30;81.90
38008;DHT22;75335;50.812;12.376;2024-03-29T00:46:45;8.20;81.80
38008;DHT22;75335;50.812;12.376;2024-03-29T00:49:11;8.20;81.90
38008;DHT22;75335;50.812;12.376;2024-03-29T00:51:39;8.20;81.80
38008;DHT22;75335;50.812;12.376;2024-03-29T00:54:06;8.20;81.60
38008;DHT22;75335;50.812;12.376;2024-03-29T00:56:32;8.20;81.60
38008;DHT22;75335;50.812;12.376;2024-03-29T00:58:59;8.20;81.50
38008;DHT22;75335;50.812;12.376;2024-03-29T01:01:26;8.20;81.60
38008;DHT22;75335;50.812;12.376;2024-03-29T01:03:53;8.20;81.80
38008;DHT22;75335;50.812;12.376;2024-03-29T01:06:20;8.20;81.70
38008;DHT22;75335;50.812;12.376;2024-03-29T01:08:49;8.10;81.70
38008;DHT22;75335;50.812;12.376;2024-03-29T01:11:16;8.20;81.80
38008;DHT22;75335;50.812;12.376;2024-03-29T01:13:43;8.20;81.70
38008;DHT22;75335;50.812;12.376;2024-03-29T01:16:09;8.10;81.70
38008;DHT22;75335;50.812;12.376;2024-03-29T01:18:36;8.10;81.60
38008;DHT22;75335;50.812;12.376;2024-03-29T01:21:03;8.10;81.50
38008;DHT22;75335;50.812;12.376;2024-03-29T01:23:30;8.10;81.40
38008;DHT22;75335;50.812;12.376;2024-03-29T01:25:59;8.10;81.40
38008;DHT22;75335;50.812;12.376;2024-03-29T01:28:25;8.10;81.30
38008;DHT22;75335;50.812;12.376;2024-03-29T01:30:53;8.10;81.40
38008;DHT22;75335;50.812;12.376;2024-03-29T01:33:21;8.00;81.50
38008;DHT22;75335;50.812;12.376;2024-03-29T01:35:47;8.00;81.70
38008;DHT22;75335;50.812;12.376;2024-03-29T01:38:15;7.90;81.70
38008;DHT22;75335;50.812;12.376;2024-03-29T01:40:43;8.00;81.00
38008;DHT22;75335;50.812;12.376;2024-03-29T01:43:11;8.10;81.10
38008;DHT22;75335;50.812;12.376;2024-03-29T01:45:39;8.10;80.80
38008;DHT22;75335;50.812;12.376;2024-03-29T01:48:10;8.10;81.00
38008;DHT22;75335;50.812;12.376;2024-03-29T01:50:38;8.10;81.30
38008;DHT22;75335;50.812;12.376;2024-03-29T01:53:07;8.00;81.20
38008;DHT22;75335;50.812;12.376;2024-03-29T01:55:36;8.00;81.30
38008;DHT22;75335;50.812;12.376;2024-03-29T01:58:05;7.90;81.60
38008;DHT22;75335;50.812;12.376;2024-03-29T02:00:36;7.90;81.80
38008;DHT22;75335;50.812;12.376;2024-03-29T02:03:06;7.70;82.00
38008;DHT22;75335;50.812;12.376;2024-03-29T02:05:36;7.80;81.70
38008;DHT22;75335;50.812;12.376;2024-03-29T02:08:04;7.80;81.60
38008;DHT22;75335;50.812;12.376;2024-03-29T02:10:33;7.80;81.70
38008;DHT22;75335;50.812;12.376;2024-03-29T02:13:02;7.80;81.70
38008;DHT22;75335;50.812;12.376;2024-03-29T02:15:29;7.80;81.60
38008;DHT22;75335;50.812;12.376;2024-03-29T02:17:58;7.90;81.20
38008;DHT22;75335;50.812;12.376;2024-03-29T02:20:26;7.90;81.40
38008;DHT22;75335;50.812;12.376;2024-03-29T02:22:57;7.90;80.30
38008;DHT22;75335;50.812;12.376;2024-03-29T02:25:28;7.80;80.20
38008;DHT22;75335;50.812;12.376;2024-03-29T02:27:56;7.80;80.20
38008;DHT22;75335;50.812;12.376;2024-03-29T02:30:24;7.80;79.80
38008;DHT22;75335;50.812;12.376;2024-03-29T02:32:52;7.90;79.40
38008;DHT22;75335;50.812;12.376;2024-03-29T02:35:20;8.00;79.60
38008;DHT22;75335;50.812;12.376;2024-03-29T02:37:47;8.00;79.40
38008;DHT22;75335;50.812;12.376;2024-03-29T02:40:15;8.00;79.30
38008;DHT22;75335;50.812;12.376;2024-03-29T02:42:44;8.00;79.30
38008;DHT22;75335;50.812;12.376;2024-03-29T02:45:12;7.90;79.40
38008;DHT22;75335;50.812;12.376;2024-03-29T02:47:40;8.10;79.10
38008;DHT22;75335;50.812;12.376;2024-03-29T02:50:10;8.00;78.90
38008;DHT22;75335;50.812;12.376;2024-03-29T02:52:39;8.10;79.30
38008;DHT22;75335;50.812;12.376;2024-03-29T02:55:07;8.00;79.00
38008;DHT22;75335;50.812;12.376;2024-03-29T02:57:35;8.00;79.10
38008;DHT22;75335;50.812;12.376;2024-03-29T03:00:07;8.00;79.40
38008;DHT22;75335;50.812;12.376;2024-03-29T03:02:37;8.10;79.00
38008;DHT22;75335;50.812;12.376;2024-03-29T03:05:07;8.30;78.40
38008;DHT22;75335;50.812;12.376;2024-03-29T03:07:34;8.10;78.50
38008;DHT22;75335;50.812;12.376;2024-03-29T03:10:20;8.20;78.20
38008;DHT22;75335;50.812;12.376;2024-03-29T03:13:13;8.30;77.70
38008;DHT22;75335;50.812;12.376;2024-03-29T03:15:43;8.30;77.80
38008;DHT22;75335;50.812;12.376;2024-03-29T03:18:10;8.20;77.80
38008;DHT22;75335;50.812;12.376;2024-03-29T03:20:38;8.30;77.70
38008;DHT22;75335;50.812;12.376;2024-03-29T03:23:04;8.40;77.70
38008;DHT22;75335;50.812;12.376;2024-03-29T03:25:32;8.30;77.70
38008;DHT22;75335;50.812;12.376;2024-03-29T03:27:59;8.30;78.30
38008;DHT22;75335;50.812;12.376;2024-03-29T03:30:27;8.20;78.20
38008;DHT22;75335;50.812;12.376;2024-03-29T03:32:55;8.10;78.50
38008;DHT22;75335;50.812;12.376;2024-03-29T03:35:22;8.20;78.50
38008;DHT22;75335;50.812;12.376;2024-03-29T03:37:49;8.30;78.40
38008;DHT22;75335;50.812;12.376;2024-03-29T03:40:17;8.40;78.10
38008;DHT22;75335;50.812;12.376;2024-03-29T03:42:44;8.40;78.10
38008;DHT22;75335;50.812;12.376;2024-03-29T03:45:12;8.40;78.40
38008;DHT22;75335;50.812;12.376;2024-03-29T03:47:39;8.40;77.80
38008;DHT22;75335;50.812;12.376;2024-03-29T03:50:09;8.60;77.30
38008;DHT22;75335;50.812;12.376;2024-03-29T03:52:35;8.60;77.20
38008;DHT22;75335;50.812;12.376;2024-03-29T03:55:03;8.60;77.40
38008;DHT22;75335;50.812;12.376;2024-03-29T03:57:31;8.50;77.40
38008;DHT22;75335;50.812;12.376;2024-03-29T03:59:59;8.40;77.90
38008;DHT22;75335;50.812;12.376;2024-03-29T04:02:26;8.50;77.80
38008;DHT22;75335;50.812;12.376;2024-03-29T04:04:54;8.60;77.30
38008;DHT22;75335;50.812;12.376;2024-03-29T04:07:23;8.60;77.10
38008;DHT22;75335;50.812;12.376;2024-03-29T04:09:53;8.60;77.30
38008;DHT22;75335;50.812;12.376;2024-03-29T04:12:19;8.60;77.40
38008;DHT22;75335;50.812;12.376;2024-03-29T04:14:47;8.70;76.90
38008;DHT22;75335;50.812;12.376;2024-03-29T04:17:29;8.70;77.40
38008;DHT22;75335;50.812;12.376;2024-03-29T04:19:57;8.70;77.30
38008;DHT22;75335;50.812;12.376;2024-03-29T04:22:27;8.70;76.80
38008;DHT22;75335;50.812;12.376;2024-03-29T04:24:56;8.70;76.40
38008;DHT22;75335;50.812;12.376;2024-03-29T04:27:23;8.80;76.40
38008;DHT22;75335;50.812;12.376;2024-03-29T04:29:51;8.70;76.70
38008;DHT22;75335;50.812;12.376;2024-03-29T04:32:18;8.70;76.60
38008;DHT22;75335;50.812;12.376;2024-03-29T04:34:47;8.70;77.00
38008;DHT22;75335;50.812;12.376;2024-03-29T04:37:14;8.60;76.90
38008;DHT22;75335;50.812;12.376;2024-03-29T04:39:45;8.70;76.80
38008;DHT22;75335;50.812;12.376;2024-03-29T04:42:13;8.70;76.70
38008;DHT22;75335;50.812;12.376;2024-03-29T04:44:40;8.70;77.00
38008;DHT22;75335;50.812;12.376;2024-03-29T04:47:08;8.70;76.60
38008;DHT22;75335;50.812;12.376;2024-03-29T04:49:36;8.80;76.80
38008;DHT22;75335;50.812;12.376;2024-03-29T04:52:05;8.90;76.50
38008;DHT22;75335;50.812;12.376;2024-03-29T04:54:34;8.90;76.00
38008;DHT22;75335;50.812;12.376;2024-03-29T04:57:03;8.80;76.20
38008;DHT22;75335;50.812;12.376;2024-03-29T04:59:32;8.90;75.90
38008;DHT22;75335;50.812;12.376;2024-03-29T05:02:00;9.00;75.70
38008;DHT22;75335;50.812;12.376;2024-03-29T05:04:29;8.70;76.20
38008;DHT22;75335;50.812;12.376;2024-03-29T05:07:09;8.70;76.00
38008;DHT22;75335;50.812;12.376;2024-03-29T05:09:37;8.80;75.80
38008;DHT22;75335;50.812;12.376;2024-03-29T05:12:07;8.80;75.80
38008;DHT22;75335;50.812;12.376;2024-03-29T05:14:35;8.90;75.80
38008;DHT22;75335;50.812;12.376;2024-03-29T05:17:03;8.90;75.00
38008;DHT22;75335;50.812;12.376;2024-03-29T05:19:31;8.80;75.30
38008;DHT22;75335;50.812;12.376;2024-03-29T05:21:58;8.90;75.40
38008;DHT22;75335;50.812;12.376;2024-03-29T05:24:26;8.90;75.50
38008;DHT22;75335;50.812;12.376;2024-03-29T05:26:54;8.80;75.50
38008;DHT22;75335;50.812;12.376;2024-03-29T05:29:24;8.80;75.70
38008;DHT22;75335;50.812;12.376;2024-03-29T05:31:52;8.90;75.30
38008;DHT22;75335;50.812;12.376;2024-03-29T05:34:20;9.00;75.40
38008;DHT22;75335;50.812;12.376;2024-03-29T05:36:48;8.90;75.70
38008;DHT22;75335;50.812;12.376;2024-03-29T05:39:16;9.00;75.30
38008;DHT22;75335;50.812;12.376;2024-03-29T05:41:44;9.00;75.50
38008;DHT22;75335;50.812;12.376;2024-03-29T05:44:13;8.90;75.60
38008;DHT22;75335;50.812;12.376;2024-03-29T05:46:42;9.20;74.90
38008;DHT22;75335;50.812;12.376;2024-03-29T05:49:11;9.10;75.10
38008;DHT22;75335;50.812;12.376;2024-03-29T05:51:39;9.10;75.20
38008;DHT22;75335;50.812;12.376;2024-03-29T05:54:07;9.00;75.10
38008;DHT22;75335;50.812;12.376;2024-03-29T05:56:35;9.10;75.10
38008;DHT22;75335;50.812;12.376;2024-03-29T05:59:03;9.20;74.90
38008;DHT22;75335;50.812;12.376;2024-03-29T06:01:31;9.30;74.20
38008;DHT22;75335;50.812;12.376;2024-03-29T06:04:00;9.30;73.60
38008;DHT22;75335;50.812;12.376;2024-03-29T06:06:32;9.30;74.40
38008;DHT22;75335;50.812;12.376;2024-03-29T06:09:00;9.40;73.40
38008;DHT22;75335;50.812;12.376;2024-03-29T06:11:28;9.40;73.50
38008;DHT22;75335;50.812;12.376;2024-03-29T06:13:57;9.30;72.60
38008;DHT22;75335;50.812;12.376;2024-03-29T06:16:42;9.40;72.70
38008;DHT22;75335;50.812;12.376;2024-03-29T06:19:40;9.40;72.40
38008;DHT22;75335;50.812;12.376;2024-03-29T06:22:08;9.50;71.90
38008;DHT22;75335;50.812;12.376;2024-03-29T06:24:36;9.50;71.80
38008;DHT22;75335;50.812;12.376;2024-03-29T06:27:05;9.60;71.00
38008;DHT22;75335;50.812;12.376;2024-03-29T06:29:33;9.70;70.70
38008;DHT22;75335;50.812;12.376;2024-03-29T06:32:00;9.70;69.80
38008;DHT22;75335;50.812;12.376;2024-03-29T06:34:30;9.70;69.90
38008;DHT22;75335;50.812;12.376;2024-03-29T06:37:00;9.80;69.50
38008;DHT22;75335;50.812;12.376;2024-03-29T06:39:28;9.80;68.90
38008;DHT22;75335;50.812;12.376;2024-03-29T06:41:56;9.80;69.30
38008;DHT22;75335;50.812;12.376;2024-03-29T06:44:24;9.90;69.10
38008;DHT22;75335;50.812;12.376;2024-03-29T06:46:52;9.90;69.30
38008;DHT22;75335;50.812;12.376;2024-03-29T06:49:20;9.80;69.00
38008;DHT22;75335;50.812;12.376;2024-03-29T06:51:48;9.90;69.30
38008;DHT22;75335;50.812;12.376;2024-03-29T06:54:18;9.90;68.70
38008;DHT22;75335;50.812;12.376;2024-03-29T06:56:47;9.90;68.20
38008;DHT22;75335;50.812;12.376;2024-03-29T06:59:15;10.00;68.00
38008;DHT22;75335;50.812;12.376;2024-03-29T07:01:43;10.00;67.00
38008;DHT22;75335;50.812;12.376;2024-03-29T07:04:13;10.10;66.80
38008;DHT22;75335;50.812;12.376;2024-03-29T07:06:41;10.10;66.70
38008;DHT22;75335;50.812;12.376;2024-03-29T07:09:13;10.10;66.90
38008;DHT22;75335;50.812;12.376;2024-03-29T07:11:44;10.10;66.80
38008;DHT22;75335;50.812;12.376;2024-03-29T07:14:12;10.20;67.00
38008;DHT22;75335;50.812;12.376;2024-03-29T07:16:40;10.20;66.70
38008;DHT22;75335;50.812;12.376;2024-03-29T07:19:08;10.30;66.20
38008;DHT22;75335;50.812;12.376;2024-03-29T07:21:38;10.30;66.40
38008;DHT22;75335;50.812;12.376;2024-03-29T07:24:06;10.40;66.40
38008;DHT22;75335;50.812;12.376;2024-03-29T07:26:35;10.40;66.40
38008;DHT22;75335;50.812;12.376;2024-03-29T07:29:05;10.40;65.90
38008;DHT22;75335;50.812;12.376;2024-03-29T07:31:33;10.40;66.10
38008;DHT22;75335;50.812;12.376;2024-03-29T07:34:01;10.40;66.00
38008;DHT22;75335;50.812;12.376;2024-03-29T07:36:29;10.40;66.30
38008;DHT22;75335;50.812;12.376;2024-03-29T07:39:01;10.50;66.40
38008;DHT22;75335;50.812;12.376;2024-03-29T07:41:30;10.50;66.20
38008;DHT22;75335;50.812;12.376;2024-03-29T07:43:58;10.50;66.60
38008;DHT22;75335;50.812;12.376;2024-03-29T07:46:33;10.60;66.30
38008;DHT22;75335;50.812;12.376;2024-03-29T07:49:02;10.60;65.70
38008;DHT22;75335;50.812;12.376;2024-03-29T07:51:30;10.60;64.50
38008;DHT22;75335;50.812;12.376;2024-03-29T07:53:58;10.70;64.20
38008;DHT22;75335;50.812;12.376;2024-03-29T07:56:25;10.70;64.10
38008;DHT22;75335;50.812;12.376;2024-03-29T07:58:54;10.80;64.10
38008;DHT22;75335;50.812;12.376;2024-03-29T08:01:23;10.90;63.60
38008;DHT22;75335;50.812;12.376;2024-03-29T08:03:52;10.90;63.30
38008;DHT22;75335;50.812;12.376;2024-03-29T08:06:20;11.00;62.50
38008;DHT22;75335;50.812;12.376;2024-03-29T08:08:49;11.10;62.70
38008;DHT22;75335;50.812;12.376;2024-03-29T08:11:18;11.10;62.70
38008;DHT22;75335;50.812;12.376;2024-03-29T08:13:46;11.20;62.80
38008;DHT22;75335;50.812;12.376;2024-03-29T08:16:13;11.20;62.80
38008;DHT22;75335;50.812;12.376;2024-03-29T08:18:46;11.20;63.20
38008;DHT22;75335;50.812;12.376;2024-03-29T08:21:15;11.20;63.40
38008;DHT22;75335;50.812;12.376;2024-03-29T08:23:44;11.30;63.30
38008;DHT22;75335;50.812;12.376;2024-03-29T08:26:13;11.30;63.70
38008;DHT22;75335;50.812;12.376;2024-03-29T08:28:41;11.40;63.20
38008;DHT22;75335;50.812;12.376;2024-03-29T08:31:12;11.40;63.40
38008;DHT22;75335;50.812;12.376;2024-03-29T08:33:40;11.50;64.00
38008;DHT22;75335;50.812;12.376;2024-03-29T08:36:09;11.60;62.80
38008;DHT22;75335;50.812;12.376;2024-03-29T08:38:40;11.70;62.60
38008;DHT22;75335;50.812;12.376;2024-03-29T08:41:09;11.80;62.60
38008;DHT22;75335;50.812;12.376;2024-03-29T08:43:37;11.90;61.80
38008;DHT22;75335;50.812;12.376;2024-03-29T08:46:05;11.90;61.70
38008;DHT22;75335;50.812;12.376;2024-03-29T08:48:35;12.00;60.80
38008;DHT22;75335;50.812;12.376;2024-03-29T08:51:08;12.20;60.80
38008;DHT22;75335;50.812;12.376;2024-03-29T08:53:36;12.30;60.30
38008;DHT22;75335;50.812;12.376;2024-03-29T08:56:07;12.40;60.90
38008;DHT22;75335;50.812;12.376;2024-03-29T08:58:34;12.30;60.90
38008;DHT22;75335;50.812;12.376;2024-03-29T09:01:04;12.20;61.20
38008;DHT22;75335;50.812;12.376;2024-03-29T09:03:32;12.20;61.70
38008;DHT22;75335;50.812;12.376;2024-03-29T09:06:00;12.50;61.60
38008;DHT22;75335;50.812;12.376;2024-03-29T09:08:29;12.60;61.00
38008;DHT22;75335;50.812;12.376;2024-03-29T09:10:57;12.70;61.10
38008;DHT22;75335;50.812;12.376;2024-03-29T09:13:28;12.80;60.20
38008;DHT22;75335;50.812;12.376;2024-03-29T09:15:58;12.90;60.90
38008;DHT22;75335;50.812;12.376;2024-03-29T09:18:26;13.20;59.90
38008;DHT22;75335;50.812;12.376;2024-03-29T09:20:57;13.20;59.20
38008;DHT22;75335;50.812;12.376;2024-03-29T09:23:26;13.20;58.50
38008;DHT22;75335;50.812;12.376;2024-03-29T09:25:54;13.30;58.20
38008;DHT22;75335;50.812;12.376;2024-03-29T09:28:22;13.20;58.40
38008;DHT22;75335;50.812;12.376;2024-03-29T09:30:57;13.20;58.80
38008;DHT22;75335;50.812;12.376;2024-03-29T09:33:26;13.30;57.80
38008;DHT22;75335;50.812;12.376;2024-03-29T09:35:54;13.30;57.90
38008;DHT22;75335;50.812;12.376;2024-03-29T09:38:25;13.30;57.20
38008;DHT22;75335;50.812;12.376;2024-03-29T09:40:58;13.40;57.40
38008;DHT22;75335;50.812;12.376;2024-03-29T09:43:32;13.40;56.80
38008;DHT22;75335;50.812;12.376;2024-03-29T09:46:03;13.50;55.40
38008;DHT22;75335;50.812;12.376;2024-03-29T09:48:32;13.50;54.00
38008;DHT22;75335;50.812;12.376;2024-03-29T09:51:03;13.70;53.20
38008;DHT22;75335;50.812;12.376;2024-03-29T09:53:34;13.80;53.50
38008;DHT22;75335;50.812;12.376;2024-03-29T09:56:03;13.90;54.10
38008;DHT22;75335;50.812;12.376;2024-03-29T09:58:32;13.80;53.90
38008;DHT22;75335;50.812;12.376;2024-03-29T10:01:07;13.90;53.80
38008;DHT22;75335;50.812;12.376;2024-03-29T10:03:39;13.80;53.60
38008;DHT22;75335;50.812;12.376;2024-03-29T10:06:08;13.80;53.70
38008;DHT22;75335;50.812;12.376;2024-03-29T10:08:38;13.80;52.80
38008;DHT22;75335;50.812;12.376;2024-03-29T10:11:05;13.80;53.70
38008;DHT22;75335;50.812;12.376;2024-03-29T10:13:34;13.70;52.90
38008;DHT22;75335;50.812;12.376;2024-03-29T10:16:04;13.70;53.10
38008;DHT22;75335;50.812;12.376;2024-03-29T10:18:32;13.70;53.10
38008;DHT22;75335;50.812;12.376;2024-03-29T10:21:00;13.80;52.20
38008;DHT22;75335;50.812;12.376;2024-03-29T10:23:29;13.80;52.60
38008;DHT22;75335;50.812;12.376;2024-03-29T10:25:58;13.90;51.40
38008;DHT22;75335;50.812;12.376;2024-03-29T10:28:31;13.90;51.50
38008;DHT22;75335;50.812;12.376;2024-03-29T10:31:01;14.00;51.40
38008;DHT22;75335;50.812;12.376;2024-03-29T10:33:32;13.90;51.40
38008;DHT22;75335;50.812;12.376;2024-03-29T10:36:01;13.90;51.70
38008;DHT22;75335;50.812;12.376;2024-03-29T10:38:31;13.90;51.40
38008;DHT22;75335;50.812;12.376;2024-03-29T10:41:00;13.90;51.30
38008;DHT22;75335;50.812;12.376;2024-03-29T10:43:30;14.00;51.60
38008;DHT22;75335;50.812;12.376;2024-03-29T10:46:00;13.90;52.00
38008;DHT22;75335;50.812;12.376;2024-03-29T10:48:31;14.00;52.10
38008;DHT22;75335;50.812;12.376;2024-03-29T10:50:59;13.90;53.00
38008;DHT22;75335;50.812;12.376;2024-03-29T10:53:29;13.90;52.50
38008;DHT22;75335;50.812;12.376;2024-03-29T10:55:58;14.00;53.50
38008;DHT22;75335;50.812;12.376;2024-03-29T10:58:30;14.00;52.90
38008;DHT22;75335;50.812;12.376;2024-03-29T11:00:58;14.00;54.00
38008;DHT22;75335;50.812;12.376;2024-03-29T11:03:37;14.10;53.30
38008;DHT22;75335;50.812;12.376;2024-03-29T11:06:06;14.00;53.10
38008;DHT22;75335;50.812;12.376;2024-03-29T11:08:37;14.00;54.00
38008;DHT22;75335;50.812;12.376;2024-03-29T11:11:12;14.00;54.30
38008;DHT22;75335;50.812;12.376;2024-03-29T11:13:45;14.00;54.30
38008;DHT22;75335;50.812;12.376;2024-03-29T11:16:16;14.00;54.90
38008;DHT22;75335;50.812;12.376;2024-03-29T11:18:48;14.00;55.00
38008;DHT22;75335;50.812;12.376;2024-03-29T11:21:18;13.90;55.40
38008;DHT22;75335;50.812;12.376;2024-03-29T11:23:48;13.90;55.50
38008;DHT22;75335;50.812;12.376;2024-03-29T11:26:17;13.80;56.60
38008;DHT22;75335;50.812;12.376;2024-03-29T11:28:49;13.80;57.80
38008;DHT22;75335;50.812;12.376;2024-03-29T11:31:22;13.60;59.00
38008;DHT22;75335;50.812;12.376;2024-03-29T11:33:52;13.60;59.90
38008;DHT22;75335;50.812;12.376;2024-03-29T11:36:22;13.50;60.70
38008;DHT22;75335;50.812;12.376;2024-03-29T11:38:53;13.50;61.60
38008;DHT22;75335;50.812;12.376;2024-03-29T11:41:22;13.60;63.60
38008;DHT22;75335;50.812;12.376;2024-03-29T11:43:53;13.40;65.50
38008;DHT22;75335;50.812;12.376;2024-03-29T11:46:22;13.30;68.30
38008;DHT22;75335;50.812;12.376;2024-03-29T11:48:53;13.20;72.70
38008;DHT22;75335;50.812;12.376;2024-03-29T11:51:21;13.00;72.30
38008;DHT22;75335;50.812;12.376;2024-03-29T11:53:50;13.10;73.50
38008;DHT22;75335;50.812;12.376;2024-03-29T11:56:19;13.00;73.10
38008;DHT22;75335;50.812;12.376;2024-03-29T11:58:48;12.90;74.80
38008;DHT22;75335;50.812;12.376;2024-03-29T12:01:16;12.80;76.50
38008;DHT22;75335;50.812;12.376;2024-03-29T12:03:44;12.80;78.00
38008;DHT22;75335;50.812;12.376;2024-03-29T12:06:14;12.80;77.30
38008;DHT22;75335;50.812;12.376;2024-03-29T12:08:43;12.90;78.70
38008;DHT22;75335;50.812;12.376;2024-03-29T12:11:11;12.90;77.80
38008;DHT22;75335;50.812;12.376;2024-03-29T12:13:39;12.90;78.60
38008;DHT22;75335;50.812;12.376;2024-03-29T12:16:08;13.10;79.30
38008;DHT22;75335;50.812;12.376;2024-03-29T12:18:36;13.10;78.20
38008;DHT22;75335;50.812;12.376;2024-03-29T12:21:04;13.20;78.40
38008;DHT22;75335;50.812;12.376;2024-03-29T12:23:33;13.20;78.50
38008;DHT22;75335;50.812;12.376;2024-03-29T12:26:01;13.30;78.30
38008;DHT22;75335;50.812;12.376;2024-03-29T12:28:30;13.30;76.70
38008;DHT22;75335;50.812;12.376;2024-03-29T12:31:00;13.50;76.80
38008;DHT22;75335;50.812;12.376;2024-03-29T12:33:29;13.60;75.00
38008;DHT22;75335;50.812;12.376;2024-03-29T12:35:58;13.70;76.40
38008;DHT22;75335;50.812;12.376;2024-03-29T12:38:25;13.70;75.20
38008;DHT22;75335;50.812;12.376;2024-03-29T12:40:55;13.60;75.10
38008;DHT22;75335;50.812;12.376;2024-03-29T12:43:24;13.50;75.90
38008;DHT22;75335;50.812;12.376;2024-03-29T12:45:52;13.60;76.30
38008;DHT22;75335;50.812;12.376;2024-03-29T12:48:21;13.60;75.50
38008;DHT22;75335;50.812;12.376;2024-03-29T12:50:50;13.60;75.50
38008;DHT22;75335;50.812;12.376;2024-03-29T12:53:18;13.70;76.40
38008;DHT22;75335;50.812;12.376;2024-03-29T12:55:47;13.80;77.10
38008;DHT22;75335;50.812;12.376;2024-03-29T12:58:17;13.70;75.70
38008;DHT22;75335;50.812;12.376;2024-03-29T13:00:48;13.80;76.20
38008;DHT22;75335;50.812;12.376;2024-03-29T13:03:16;13.90;75.50
38008;DHT22;75335;50.812;12.376;2024-03-29T13:05:43;14.00;75.00
38008;DHT22;75335;50.812;12.376;2024-03-29T13:08:12;14.00;76.40
38008;DHT22;75335;50.812;12.376;2024-03-29T13:10:42;14.10;74.40
38008;DHT22;75335;50.812;12.376;2024-03-29T13:13:10;14.10;75.50
38008;DHT22;75335;50.812;12.376;2024-03-29T13:15:40;14.40;75.40
38008;DHT22;75335;50.812;12.376;2024-03-29T13:18:08;14.60;74.40
38008;DHT22;75335;50.812;12.376;2024-03-29T13:20:38;14.80;74.40
38008;DHT22;75335;50.812;12.376;2024-03-29T13:23:08;14.90;73.90
38008;DHT22;75335;50.812;12.376;2024-03-29T13:25:36;14.80;73.50
38008;DHT22;75335;50.812;12.376;2024-03-29T13:28:05;14.90;74.10
38008;DHT22;75335;50.812;12.376;2024-03-29T13:30:33;15.00;73.80
38008;DHT22;75335;50.812;12.376;2024-03-29T13:33:06;15.20;73.40
38008;DHT22;75335;50.812;12.376;2024-03-29T13:35:35;15.20;74.00
38008;DHT22;75335;50.812;12.376;2024-03-29T13:38:03;15.40;73.20
38008;DHT22;75335;50.812;12.376;2024-03-29T13:40:31;15.40;72.70
38008;DHT22;75335;50.812;12.376;2024-03-29T13:43:00;15.30;73.30
38008;DHT22;75335;50.812;12.376;2024-03-29T13:45:27;15.40;74.10
38008;DHT22;75335;50.812;12.376;2024-03-29T13:47:56;15.60;72.30
38008;DHT22;75335;50.812;12.376;2024-03-29T13:50:26;15.50;72.50
38008;DHT22;75335;50.812;12.376;2024-03-29T13:52:54;15.60;72.70
38008;DHT22;75335;50.812;12.376;2024-03-29T13:55:22;15.60;72.60
38008;DHT22;75335;50.812;12.376;2024-03-29T13:57:53;15.40;71.40
38008;DHT22;75335;50.812;12.376;2024-03-29T14:00:21;15.40;72.70
38008;DHT22;75335;50.812;12.376;2024-03-29T14:02:49;15.40;71.50
38008;DHT22;75335;50.812;12.376;2024-03-29T14:05:18;15.40;72.10
38008;DHT22;75335;50.812;12.376;2024-03-29T14:07:48;15.40;72.00
38008;DHT22;75335;50.812;12.376;2024-03-29T14:10:16;15.40;72.00
38008;DHT22;75335;50.812;12.376;2024-03-29T14:12:45;15.50;72.00
38008;DHT22;75335;50.812;12.376;2024-03-29T14:15:13;15.50;72.30
38008;DHT22;75335;50.812;12.376;2024-03-29T14:17:41;15.50;73.00
38008;DHT22;75335;50.812;12.376;2024-03-29T14:20:10;15.60;72.30
38008;DHT22;75335;50.812;12.376;2024-03-29T14:22:38;15.60;72.10
38008;DHT22;75335;50.812;12.376;2024-03-29T14:25:09;15.70;72.50
38008;DHT22;75335;50.812;12.376;2024-03-29T14:27:37;15.70;71.80
38008;DHT22;75335;50.812;12.376;2024-03-29T14:30:13;15.70;72.10
38008;DHT22;75335;50.812;12.376;2024-03-29T14:32:46;15.70;72.40
38008;DHT22;75335;50.812;12.376;2024-03-29T14:35:15;15.80;72.20
38008;DHT22;75335;50.812;12.376;2024-03-29T14:37:43;15.80;71.40
38008;DHT22;75335;50.812;12.376;2024-03-29T14:40:14;15.80;72.30
38008;DHT22;75335;50.812;12.376;2024-03-29T14:42:42;15.80;71.20
38008;DHT22;75335;50.812;12.376;2024-03-29T14:45:10;15.80;71.60
38008;DHT22;75335;50.812;12.376;2024-03-29T14:47:39;15.80;71.60
38008;DHT22;75335;50.812;12.376;2024-03-29T14:50:07;15.80;72.40
38008;DHT22;75335;50.812;12.376;2024-03-29T14:52:36;15.80;72.90
38008;DHT22;75335;50.812;12.376;2024-03-29T14:55:04;15.80;72.50
38008;DHT22;75335;50.812;12.376;2024-03-29T14:57:34;15.80;73.30
38008;DHT22;75335;50.812;12.376;2024-03-29T15:00:02;15.90;71.50
38008;DHT22;75335;50.812;12.376;2024-03-29T15:02:32;15.90;73.10
38008;DHT22;75335;50.812;12.376;2024-03-29T15:04:59;16.00;72.40
38008;DHT22;75335;50.812;12.376;2024-03-29T15:07:29;16.10;72.60
38008;DHT22;75335;50.812;12.376;2024-03-29T15:09:57;16.20;72.90
38008;DHT22;75335;50.812;12.376;2024-03-29T15:12:26;16.20;72.90
38008;DHT22;75335;50.812;12.376;2024-03-29T15:14:56;16.10;72.10
38008;DHT22;75335;50.812;12.376;2024-03-29T15:17:24;16.00;71.80
38008;DHT22;75335;50.812;12.376;2024-03-29T15:19:52;16.00;71.70
38008;DHT22;75335;50.812;12.376;2024-03-29T15:22:20;16.00;72.20
38008;DHT22;75335;50.812;12.376;2024-03-29T15:24:48;16.00;72.10
38008;DHT22;75335;50.812;12.376;2024-03-29T15:27:16;15.90;72.70
38008;DHT22;75335;50.812;12.376;2024-03-29T15:29:55;15.90;73.50
38008;DHT22;75335;50.812;12.376;2024-03-29T15:32:22;16.00;74.60